createdAt,value
2022-10-16T00:00:05.091Z,1.65
2022-10-16T00:02:33.903Z,2.88
2022-10-16T00:05:01.279Z,3.78
2022-10-16T00:07:29.058Z,2.05
2022-10-16T00:09:56.405Z,3.25
2022-10-16T00:12:24.043Z,2.72
2022-10-16T00:14:51.623Z,3.58
2022-10-16T00:17:18.951Z,4.28
2022-10-16T00:19:47.580Z,2.38
2022-10-16T00:22:14.906Z,3.50
2022-10-16T00:24:42.173Z,4.22
2022-10-16T00:27:09.513Z,2.78
2022-10-16T00:29:36.841Z,2.45
2022-10-16T00:32:04.237Z,2.97
2022-10-16T00:34:31.603Z,3.35
2022-10-16T00:37:00.278Z,2.55
2022-10-16T00:39:27.631Z,2.78
2022-10-16T00:41:54.972Z,1.77
2022-10-16T00:44:40.903Z,2.03
2022-10-16T00:47:09.933Z,4.57
2022-10-16T00:49:37.237Z,7.45
2022-10-16T00:52:07.184Z,2.03
2022-10-16T00:54:35.119Z,2.75
2022-10-16T00:57:03.926Z,2.47
2022-10-16T00:59:32.578Z,2.78
2022-10-16T01:02:00.438Z,3.33
2022-10-16T01:04:27.876Z,2.78
2022-10-16T01:06:58.348Z,5.10
2022-10-16T01:09:31.351Z,2.17
2022-10-16T01:12:02.934Z,4.80
2022-10-16T01:14:34.762Z,5.60
2022-10-16T01:17:03.578Z,5.70
2022-10-16T01:19:51.421Z,2.35
2022-10-16T01:22:19.851Z,2.28
2022-10-16T01:24:51.231Z,3.85
2022-10-16T01:27:23.136Z,3.47
2022-10-16T01:29:52.533Z,2.63
2022-10-16T01:32:22.298Z,4.68
2022-10-16T01:34:51.408Z,4.10
2022-10-16T01:37:21.573Z,3.53
2022-10-16T01:39:51.283Z,1.85
2022-10-16T01:42:22.657Z,2.35
2022-10-16T01:44:50.460Z,3.20
2022-10-16T01:47:19.581Z,2.38
2022-10-16T01:49:47.717Z,3.30
2022-10-16T01:52:17.464Z,2.70
2022-10-16T01:54:47.844Z,3.20
2022-10-16T01:57:16.053Z,3.15
2022-10-16T01:59:46.416Z,5.82
2022-10-16T02:02:14.954Z,2.38
2022-10-16T02:04:45.086Z,4.35
2022-10-16T02:07:12.605Z,2.35
2022-10-16T02:09:40.343Z,2.70
2022-10-16T02:12:10.481Z,2.47
2022-10-16T02:14:39.481Z,3.95
2022-10-16T02:17:12.832Z,2.38
2022-10-16T02:19:40.300Z,5.18
2022-10-16T02:22:09.102Z,3.75
2022-10-16T02:24:39.990Z,1.67
2022-10-16T02:27:09.075Z,2.85
2022-10-16T02:29:38.658Z,3.38
2022-10-16T02:32:07.485Z,6.28
2022-10-16T02:34:36.707Z,2.75
2022-10-16T02:37:06.249Z,2.17
2022-10-16T02:39:33.649Z,4.03
2022-10-16T02:42:00.986Z,4.90
2022-10-16T02:44:28.373Z,2.78
2022-10-16T02:46:55.688Z,2.97
2022-10-16T02:49:23.069Z,1.40
2022-10-16T02:51:51.713Z,2.65
2022-10-16T02:54:19.061Z,3.17
2022-10-16T02:56:46.425Z,1.60
2022-10-16T02:59:13.713Z,1.20
2022-10-16T03:01:41.052Z,1.38
2022-10-16T03:04:08.381Z,1.10
2022-10-16T03:06:36.023Z,1.30
2022-10-16T03:09:04.792Z,1.80
2022-10-16T03:11:32.206Z,1.00
2022-10-16T03:13:59.538Z,0.90
2022-10-16T03:16:26.910Z,1.00
2022-10-16T03:18:54.252Z,2.40
2022-10-16T03:21:21.557Z,1.63
2022-10-16T03:23:49.072Z,2.15
2022-10-16T03:26:17.764Z,1.38
2022-10-16T03:28:45.117Z,0.90
2022-10-16T03:31:12.551Z,1.33
2022-10-16T03:33:39.836Z,2.85
2022-10-16T03:36:07.370Z,1.38
2022-10-16T03:38:34.710Z,1.48
2022-10-16T03:41:02.019Z,0.93
2022-10-16T03:43:30.637Z,3.25
2022-10-16T03:45:57.954Z,2.20
2022-10-16T03:48:25.301Z,1.58
2022-10-16T03:50:52.666Z,3.25
2022-10-16T03:53:20.173Z,5.60
2022-10-16T03:55:47.539Z,3.45
2022-10-16T03:58:14.995Z,1.42
2022-10-16T04:00:44.278Z,1.60
2022-10-16T04:03:11.743Z,4.05
2022-10-16T04:05:39.139Z,1.75
2022-10-16T04:08:06.419Z,1.20
2022-10-16T04:10:33.880Z,0.75
2022-10-16T04:13:01.206Z,2.00
2022-10-16T04:15:28.495Z,1.33
2022-10-16T04:17:57.210Z,0.75
2022-10-16T04:20:24.577Z,1.15
2022-10-16T04:22:51.895Z,2.85
2022-10-16T04:25:19.277Z,2.70
2022-10-16T04:27:46.631Z,2.72
2022-10-16T04:30:14.409Z,1.17
2022-10-16T04:32:41.767Z,1.42
2022-10-16T04:35:10.725Z,1.63
2022-10-16T04:37:38.077Z,1.52
2022-10-16T04:40:06.014Z,0.90
2022-10-16T04:42:33.361Z,1.63
2022-10-16T04:45:00.714Z,2.42
2022-10-16T04:47:28.512Z,0.90
2022-10-16T04:49:56.219Z,2.85
2022-10-16T04:52:25.792Z,0.80
2022-10-16T04:54:53.201Z,1.92
2022-10-16T04:57:20.543Z,1.00
2022-10-16T04:59:47.838Z,1.67
2022-10-16T05:02:15.108Z,2.25
2022-10-16T05:04:42.455Z,1.40
2022-10-16T05:07:09.790Z,1.92
2022-10-16T05:09:38.460Z,4.03
2022-10-16T05:12:05.832Z,1.60
2022-10-16T05:14:33.181Z,2.30
2022-10-16T05:17:01.535Z,5.13
2022-10-16T05:19:29.272Z,3.70
2022-10-16T05:21:56.684Z,2.47
2022-10-16T05:24:24.095Z,2.22
2022-10-16T05:26:53.184Z,1.25
2022-10-16T05:29:20.525Z,2.20
2022-10-16T05:31:47.918Z,1.20
2022-10-16T05:34:15.236Z,1.67
2022-10-16T05:36:42.536Z,2.80
2022-10-16T05:39:09.845Z,1.63
2022-10-16T05:41:37.149Z,3.15
2022-10-16T05:44:07.504Z,2.85
2022-10-16T05:46:34.901Z,2.97
2022-10-16T05:49:02.503Z,1.52
2022-10-16T05:51:29.830Z,9.27
2022-10-16T05:53:57.222Z,2.25
2022-10-16T05:56:24.555Z,3.55
2022-10-16T05:58:51.901Z,1.50
2022-10-16T06:01:21.622Z,1.70
2022-10-16T06:03:49.118Z,3.42
2022-10-16T06:06:17.347Z,4.97
2022-10-16T06:08:46.201Z,2.00
2022-10-16T06:11:14.379Z,4.90
2022-10-16T06:13:43.216Z,1.50
2022-10-16T06:16:11.543Z,1.50
2022-10-16T06:18:40.538Z,2.38
2022-10-16T06:21:11.541Z,2.35
2022-10-16T06:23:38.910Z,1.63
2022-10-16T06:26:07.018Z,1.95
2022-10-16T06:28:34.826Z,3.58
2022-10-16T06:31:05.582Z,5.03
2022-10-16T06:33:35.908Z,6.03
2022-10-16T06:36:05.228Z,2.47
2022-10-16T06:38:32.832Z,3.25
2022-10-16T06:41:00.596Z,3.78
2022-10-16T06:43:27.939Z,5.28
2022-10-16T06:45:55.591Z,1.80
2022-10-16T06:48:23.039Z,2.75
2022-10-16T06:51:00.291Z,2.25
2022-10-16T06:53:36.030Z,6.05
2022-10-16T06:56:12.055Z,6.18
2022-10-16T06:58:39.697Z,1.83
2022-10-16T07:01:07.398Z,1.60
2022-10-16T07:03:34.972Z,5.40
2022-10-16T07:06:03.597Z,2.50
2022-10-16T07:08:34.318Z,1.40
2022-10-16T07:11:03.195Z,1.80
2022-10-16T07:13:30.636Z,2.33
2022-10-16T07:15:57.953Z,1.42
2022-10-16T07:18:27.564Z,1.90
2022-10-16T07:20:55.475Z,3.28
2022-10-16T07:23:22.830Z,5.95
2022-10-16T07:25:55.357Z,3.65
2022-10-16T07:28:24.034Z,3.17
2022-10-16T07:30:51.380Z,2.30
2022-10-16T07:33:18.810Z,1.98
2022-10-16T07:35:49.834Z,1.33
2022-10-16T07:38:17.144Z,3.60
2022-10-16T07:40:44.437Z,1.85
2022-10-16T07:43:11.992Z,1.63
2022-10-16T07:45:48.079Z,3.03
2022-10-16T07:48:15.428Z,1.90
2022-10-16T07:50:43.037Z,2.03
2022-10-16T07:53:10.820Z,2.95
2022-10-16T07:55:38.188Z,1.70
2022-10-16T07:58:05.523Z,2.88
2022-10-16T08:00:32.838Z,3.75
2022-10-16T08:03:01.874Z,2.25
2022-10-16T08:05:29.305Z,1.35
2022-10-16T08:07:56.980Z,3.10
2022-10-16T08:10:25.383Z,1.25
2022-10-16T08:12:52.845Z,1.70
2022-10-16T08:15:20.395Z,3.30
2022-10-16T08:17:56.070Z,1.83
2022-10-16T08:20:24.786Z,1.52
2022-10-16T08:22:52.098Z,4.00
2022-10-16T08:25:19.441Z,1.33
2022-10-16T08:27:46.791Z,2.08
2022-10-16T08:30:14.317Z,1.33
2022-10-16T08:32:42.138Z,3.78
2022-10-16T08:35:10.114Z,1.63
2022-10-16T08:37:39.077Z,1.80
2022-10-16T08:40:08.260Z,1.52
2022-10-16T08:42:43.274Z,1.13
2022-10-16T08:45:31.365Z,1.15
2022-10-16T08:48:02.413Z,0.95
2022-10-16T08:50:31.794Z,1.70
2022-10-16T08:53:00.841Z,1.00
2022-10-16T08:55:33.204Z,0.70
2022-10-16T08:58:00.982Z,1.05
2022-10-16T09:00:28.836Z,2.90
2022-10-16T09:03:03.188Z,2.45
2022-10-16T09:05:39.500Z,5.45
2022-10-16T09:08:13.386Z,2.03
2022-10-16T09:10:45.778Z,2.55
2022-10-16T09:13:16.519Z,2.75
2022-10-16T09:15:48.487Z,2.50
2022-10-16T09:18:18.981Z,1.40
2022-10-16T09:20:50.959Z,1.45
2022-10-16T09:23:21.265Z,2.85
2022-10-16T09:25:50.146Z,1.52
2022-10-16T09:28:18.462Z,0.88
2022-10-16T09:30:46.271Z,2.63
2022-10-16T09:33:15.172Z,2.70
2022-10-16T09:35:43.684Z,2.58
2022-10-16T09:38:11.567Z,1.45
2022-10-16T09:40:43.683Z,1.50
2022-10-16T09:43:21.311Z,0.80
2022-10-16T09:45:56.156Z,3.13
2022-10-16T09:50:57.186Z,4.35
2022-10-16T09:53:24.533Z,1.13
2022-10-16T09:55:53.865Z,1.65
2022-10-16T09:58:23.181Z,1.75
2022-10-16T10:00:51.135Z,1.70
2022-10-16T10:03:25.411Z,4.85
2022-10-16T10:05:53.010Z,1.70
2022-10-16T10:08:20.658Z,1.58
2022-10-16T10:10:50.382Z,3.60
2022-10-16T10:13:21.634Z,2.17
2022-10-16T10:15:49.171Z,1.05
2022-10-16T10:18:18.605Z,2.20
2022-10-16T10:20:45.974Z,1.27
2022-10-16T10:23:22.264Z,2.05
2022-10-16T10:25:55.498Z,2.45
2022-10-16T10:28:36.556Z,1.20
2022-10-16T10:31:08.702Z,0.90
2022-10-16T10:33:41.687Z,1.33
2022-10-16T10:36:14.575Z,1.25
2022-10-16T10:38:47.581Z,1.38
2022-10-16T10:41:29.208Z,0.65
2022-10-16T10:44:03.824Z,2.97
2022-10-16T10:46:34.057Z,4.35
2022-10-16T10:49:09.890Z,5.43
2022-10-16T10:51:42.864Z,1.88
2022-10-16T10:54:15.791Z,1.20
2022-10-16T10:56:48.989Z,5.15
2022-10-16T10:59:25.648Z,3.45
2022-10-16T11:01:56.633Z,3.53
2022-10-16T11:04:34.314Z,3.08
2022-10-16T11:07:02.785Z,2.60
2022-10-16T11:09:32.590Z,1.40
2022-10-16T11:12:02.667Z,2.83
2022-10-16T11:14:33.797Z,6.22
2022-10-16T11:17:03.094Z,1.55
2022-10-16T11:19:35.701Z,5.15
2022-10-16T11:22:05.521Z,2.53
2022-10-16T11:24:37.771Z,2.28
2022-10-16T11:27:09.029Z,1.48
2022-10-16T11:29:45.250Z,1.75
2022-10-16T11:32:20.420Z,3.22
2022-10-16T11:34:52.090Z,1.55
2022-10-16T11:37:21.604Z,5.80
2022-10-16T11:39:55.276Z,1.25
2022-10-16T11:42:24.545Z,2.78
2022-10-16T11:44:58.673Z,3.17
2022-10-16T11:47:53.792Z,1.70
2022-10-16T11:50:22.551Z,0.90
2022-10-16T11:52:54.046Z,1.48
2022-10-16T11:55:22.921Z,2.22
2022-10-16T11:57:51.823Z,4.97
2022-10-16T12:00:23.438Z,1.80
2022-10-16T12:02:55.083Z,2.95
2022-10-16T12:05:26.081Z,2.97
2022-10-16T12:07:58.300Z,2.35
2022-10-16T12:10:27.812Z,2.38
2022-10-16T12:12:55.688Z,2.88
2022-10-16T12:15:47.025Z,4.63
2022-10-16T12:18:22.530Z,2.78
2022-10-16T12:20:59.640Z,2.72
2022-10-16T12:23:27.070Z,3.35
2022-10-16T12:25:56.202Z,3.55
2022-10-16T12:28:28.257Z,3.15
2022-10-16T12:30:58.464Z,2.25
2022-10-16T12:33:27.131Z,1.58
2022-10-16T12:35:55.204Z,2.17
2022-10-16T12:38:23.360Z,3.60
2022-10-16T12:40:57.045Z,1.55
2022-10-16T12:43:30.006Z,1.90
2022-10-16T12:46:06.653Z,1.65
2022-10-16T12:48:48.332Z,3.88
2022-10-16T12:51:24.523Z,1.13
2022-10-16T12:53:59.725Z,0.68
2022-10-16T12:56:31.019Z,1.42
2022-10-16T12:59:04.777Z,0.60
2022-10-16T13:01:39.543Z,4.38
2022-10-16T13:06:38.309Z,1.73
2022-10-16T13:09:17.217Z,1.55
2022-10-16T13:11:51.154Z,1.73
2022-10-16T13:14:25.985Z,1.53
2022-10-16T13:19:25.611Z,4.50
2022-10-16T13:21:56.727Z,2.80
2022-10-16T13:24:30.041Z,1.05
2022-10-16T13:26:59.964Z,0.65
2022-10-16T13:29:31.498Z,1.80
2022-10-16T13:31:59.670Z,1.50
2022-10-16T13:34:28.695Z,5.45
2022-10-16T13:36:56.165Z,3.50
2022-10-16T13:39:24.241Z,2.75
2022-10-16T13:42:06.458Z,3.10
2022-10-16T13:44:39.226Z,1.25
2022-10-16T13:47:06.512Z,2.78
2022-10-16T13:49:35.207Z,0.93
2022-10-16T13:52:02.501Z,2.50
2022-10-16T13:54:30.570Z,1.58
2022-10-16T13:57:03.364Z,0.70
2022-10-16T13:59:37.290Z,2.88
2022-10-16T14:02:10.847Z,2.75
2022-10-16T14:04:40.509Z,1.10
2022-10-16T14:07:07.846Z,2.00
2022-10-16T14:09:37.341Z,0.82
2022-10-16T14:12:05.919Z,3.67
2022-10-16T14:14:36.155Z,1.95
2022-10-16T14:17:04.327Z,2.22
2022-10-16T14:19:32.495Z,2.00
2022-10-16T14:22:01.737Z,2.50
2022-10-16T14:24:33.790Z,2.28
2022-10-16T14:27:01.494Z,1.58
2022-10-16T14:29:29.333Z,1.08
2022-10-16T14:31:57.129Z,3.50
2022-10-16T14:34:26.328Z,1.52
2022-10-16T14:36:53.687Z,2.65
2022-10-16T14:39:23.601Z,0.88
2022-10-16T14:41:51.818Z,2.88
2022-10-16T14:44:19.843Z,2.88
2022-10-16T14:46:47.424Z,2.10
2022-10-16T14:49:17.618Z,3.50
2022-10-16T14:51:45.831Z,1.05
2022-10-16T14:54:13.488Z,4.45
2022-10-16T14:56:46.813Z,1.90
2022-10-16T14:59:16.560Z,2.03
2022-10-16T15:01:44.669Z,0.60
2022-10-16T15:04:13.234Z,1.40
2022-10-16T15:06:40.599Z,2.20
2022-10-16T15:09:08.277Z,4.53
2022-10-16T15:11:35.841Z,1.70
2022-10-16T15:14:04.715Z,1.80
2022-10-16T15:16:32.464Z,3.92
2022-10-16T15:18:59.926Z,1.35
2022-10-16T15:21:28.736Z,0.80
2022-10-16T15:23:57.311Z,1.05
2022-10-16T15:26:24.723Z,1.50
2022-10-16T15:28:52.171Z,1.85
2022-10-16T15:31:22.250Z,1.13
2022-10-16T15:33:54.381Z,3.17
2022-10-16T15:36:28.703Z,2.28
2022-10-16T15:38:56.157Z,3.08
2022-10-16T15:41:23.843Z,0.85
2022-10-16T15:43:51.681Z,0.90
2022-10-16T15:46:21.437Z,1.70
2022-10-16T15:48:49.204Z,1.98
2022-10-16T15:51:16.920Z,1.65
2022-10-16T15:53:44.261Z,3.10
2022-10-16T15:56:12.615Z,1.23
2022-10-16T15:58:40.045Z,2.95
2022-10-16T16:01:10.194Z,1.65
2022-10-16T16:03:40.752Z,2.65
2022-10-16T16:06:09.253Z,3.33
2022-10-16T16:08:36.696Z,2.28
2022-10-16T16:11:05.775Z,1.40
2022-10-16T16:13:33.704Z,2.50
2022-10-16T16:16:01.308Z,3.88
2022-10-16T16:18:29.505Z,1.83
2022-10-16T16:20:58.218Z,2.15
2022-10-16T16:23:25.631Z,3.53
2022-10-16T16:26:06.604Z,1.55
2022-10-16T16:28:33.995Z,2.80
2022-10-16T16:31:01.366Z,2.15
2022-10-16T16:33:28.727Z,2.42
2022-10-16T16:36:01.348Z,1.95
2022-10-16T16:38:29.230Z,1.77
2022-10-16T16:40:56.687Z,3.20
2022-10-16T16:43:24.659Z,2.05
2022-10-16T16:45:52.039Z,1.20
2022-10-16T16:48:19.425Z,2.38
2022-10-16T16:50:46.991Z,1.48
2022-10-16T16:53:15.689Z,2.05
2022-10-16T16:55:43.021Z,3.50
2022-10-16T16:58:10.325Z,2.38
2022-10-16T17:00:37.703Z,1.83
2022-10-16T17:03:05.022Z,2.40
2022-10-16T17:05:32.358Z,2.08
2022-10-16T17:07:59.689Z,3.13
2022-10-16T17:10:28.415Z,1.20
2022-10-16T17:12:55.905Z,3.40
2022-10-16T17:15:23.295Z,1.90
2022-10-16T17:17:50.892Z,1.05
2022-10-16T17:20:18.229Z,1.23
2022-10-16T17:22:45.535Z,3.13
2022-10-16T17:25:12.915Z,4.28
2022-10-16T17:27:41.619Z,0.90
2022-10-16T17:30:09.263Z,2.25
2022-10-16T17:32:36.583Z,3.40
2022-10-16T17:35:03.958Z,2.38
2022-10-16T17:37:31.266Z,2.03
2022-10-16T17:39:58.578Z,2.97
2022-10-16T17:42:26.155Z,1.48
2022-10-16T17:44:55.063Z,3.38
2022-10-16T17:47:22.431Z,2.38
2022-10-16T17:49:49.765Z,3.67
2022-10-16T17:52:17.200Z,1.77
2022-10-16T17:54:45.063Z,1.55
2022-10-16T17:57:12.420Z,3.40
2022-10-16T17:59:39.793Z,2.75
2022-10-16T18:02:08.512Z,5.10
2022-10-16T18:04:35.887Z,2.75
2022-10-16T18:07:03.302Z,4.15
2022-10-16T18:09:30.720Z,4.97
2022-10-16T18:12:00.574Z,3.97
2022-10-16T18:14:29.068Z,4.78
2022-10-16T18:16:56.477Z,7.13
2022-10-16T18:19:25.211Z,12.30
2022-10-16T18:21:52.770Z,8.50
2022-10-16T18:24:20.500Z,3.58
2022-10-16T18:26:50.146Z,2.35
2022-10-16T18:29:17.538Z,2.83
2022-10-16T18:31:44.829Z,4.28
2022-10-16T18:34:12.159Z,5.70
2022-10-16T18:36:42.784Z,4.72
2022-10-16T18:39:12.088Z,2.70
2022-10-16T18:41:39.874Z,6.30
2022-10-16T18:44:07.687Z,4.55
2022-10-16T18:46:35.083Z,3.03
2022-10-16T18:49:02.461Z,4.05
2022-10-16T18:51:30.764Z,3.70
2022-10-16T18:54:01.010Z,3.50
2022-10-16T18:56:29.018Z,2.75
2022-10-16T18:58:59.156Z,4.13
2022-10-16T19:01:27.467Z,4.28
2022-10-16T19:03:55.791Z,2.35
2022-10-16T19:06:23.342Z,2.25
2022-10-16T19:08:50.648Z,3.17
2022-10-16T19:11:20.095Z,2.58
2022-10-16T19:13:48.360Z,2.35
2022-10-16T19:16:21.260Z,4.03
2022-10-16T19:18:49.320Z,3.13
2022-10-16T19:21:17.158Z,3.55
2022-10-16T19:23:44.794Z,4.22
2022-10-16T19:26:12.950Z,5.75
2022-10-16T19:28:41.894Z,5.47
2022-10-16T19:31:11.410Z,4.25
2022-10-16T19:33:39.562Z,4.80
2022-10-16T19:36:10.378Z,4.35
2022-10-16T19:38:37.782Z,3.72
2022-10-16T19:41:08.587Z,2.40
2022-10-16T19:43:36.010Z,3.58
2022-10-16T19:46:08.993Z,2.97
2022-10-16T19:48:36.281Z,3.08
2022-10-16T19:51:04.207Z,5.70
2022-10-16T19:53:32.324Z,3.20
2022-10-16T19:56:00.038Z,2.78
2022-10-16T19:58:27.704Z,2.85
2022-10-16T20:00:55.226Z,4.18
2022-10-16T20:03:23.872Z,4.97
2022-10-16T20:05:51.909Z,5.25
2022-10-16T20:08:19.226Z,2.50
2022-10-16T20:10:48.969Z,3.13
2022-10-16T20:13:16.332Z,2.75
2022-10-16T20:15:43.649Z,2.70
2022-10-16T20:18:11.000Z,3.97
2022-10-16T20:20:39.829Z,3.85
2022-10-16T20:23:07.675Z,3.50
2022-10-16T20:25:35.815Z,6.45
2022-10-16T20:28:03.153Z,2.78
2022-10-16T20:30:34.014Z,7.93
2022-10-16T20:33:01.309Z,4.55
2022-10-16T20:35:28.792Z,4.07
2022-10-16T20:37:57.463Z,3.63
2022-10-16T20:40:24.780Z,4.95
2022-10-16T20:42:52.096Z,3.50
2022-10-16T20:45:19.399Z,7.07
2022-10-16T20:47:46.686Z,4.85
2022-10-16T20:50:16.205Z,4.07
2022-10-16T20:52:43.586Z,5.05
2022-10-16T20:55:12.345Z,3.88
2022-10-16T20:57:39.646Z,4.18
2022-10-16T21:00:07.547Z,4.55
2022-10-16T21:02:34.861Z,5.57
2022-10-16T21:05:02.199Z,4.13
2022-10-16T21:07:29.882Z,4.43
2022-10-16T21:09:57.796Z,4.00
2022-10-16T21:12:27.027Z,6.28
2022-10-16T21:15:13.457Z,7.88
2022-10-16T21:17:41.938Z,5.13
2022-10-16T21:20:09.860Z,6.10
2022-10-16T21:22:37.280Z,4.05
2022-10-16T21:25:04.931Z,4.15
2022-10-16T21:27:38.408Z,4.65
2022-10-16T21:30:06.303Z,6.22
2022-10-16T21:32:35.661Z,4.65
2022-10-16T21:35:02.987Z,3.60
2022-10-16T21:37:30.316Z,5.45
2022-10-16T21:39:57.731Z,5.35
2022-10-16T21:42:25.474Z,5.07
2022-10-16T21:44:54.333Z,8.25
2022-10-16T21:47:21.644Z,11.02
2022-10-16T21:49:49.165Z,6.50
2022-10-16T21:52:17.058Z,5.43
2022-10-16T21:54:44.410Z,7.43
2022-10-16T21:57:11.760Z,6.72
2022-10-16T21:59:39.068Z,9.32
2022-10-16T22:02:07.838Z,7.32
2022-10-16T22:04:35.248Z,9.20
2022-10-16T22:07:02.550Z,7.85
2022-10-16T22:09:29.994Z,9.55
2022-10-16T22:11:57.325Z,8.23
2022-10-16T22:14:24.838Z,9.20
2022-10-16T22:16:52.329Z,10.90
2022-10-16T22:19:22.839Z,11.85
2022-10-16T22:21:51.693Z,7.38
2022-10-16T22:24:19.350Z,10.35
2022-10-16T22:26:47.641Z,9.93
2022-10-16T22:29:15.420Z,11.43
2022-10-16T22:31:43.057Z,11.52
2022-10-16T22:34:12.141Z,11.52
2022-10-16T22:36:41.122Z,10.20
2022-10-16T22:39:08.697Z,10.25
2022-10-16T22:41:36.253Z,10.27
2022-10-16T22:44:03.599Z,11.88
2022-10-16T22:46:31.826Z,16.98
2022-10-16T22:48:59.368Z,15.07
2022-10-16T22:51:27.670Z,15.73
2022-10-16T22:53:57.693Z,18.48
2022-10-16T22:56:25.110Z,12.10
2022-10-16T22:58:52.408Z,12.10
2022-10-16T23:01:21.382Z,11.88
2022-10-16T23:03:48.932Z,14.65
2022-10-16T23:06:16.545Z,14.13
2022-10-16T23:08:43.862Z,12.70
2022-10-16T23:11:13.160Z,18.50
2022-10-16T23:13:43.433Z,18.48
2022-10-16T23:16:12.217Z,13.98
2022-10-16T23:18:39.638Z,20.70
2022-10-16T23:21:07.134Z,16.88
2022-10-16T23:23:35.451Z,21.02
2022-10-16T23:26:02.872Z,16.73
2022-10-16T23:28:32.080Z,14.52
2022-10-16T23:30:59.505Z,17.33
2022-10-16T23:33:26.811Z,16.70
2022-10-16T23:35:54.114Z,16.92
2022-10-16T23:38:21.415Z,15.07
2022-10-16T23:40:48.737Z,14.80
2022-10-16T23:43:16.019Z,16.80
2022-10-16T23:45:44.666Z,16.58
2022-10-16T23:48:12.041Z,13.32
2022-10-16T23:50:39.385Z,15.90
2022-10-16T23:53:10.260Z,16.08
2022-10-16T23:55:37.947Z,15.60
2022-10-16T23:58:05.268Z,22.05
